createdAt,value
2017-07-19T00:00:05.523Z,24.9
2017-07-19T00:02:05.305Z,24.9
2017-07-19T00:04:05.160Z,24.9
2017-07-19T00:06:10.135Z,24.9
2017-07-19T00:08:14.992Z,24.9
2017-07-19T00:10:05.265Z,24.9
2017-07-19T00:12:05.008Z,24.9
2017-07-19T00:14:05.222Z,24.9
2017-07-19T00:16:05.047Z,24.9
2017-07-19T00:18:05.030Z,24.9
2017-07-19T00:20:07.248Z,24.9
2017-07-19T00:22:05.319Z,24.9
2017-07-19T00:24:05.081Z,24.9
2017-07-19T00:26:04.842Z,24.9
2017-07-19T00:28:05.823Z,24.9
2017-07-19T00:30:05.533Z,24.9
2017-07-19T00:32:05.269Z,24.9
2017-07-19T00:34:05.140Z,24.9
2017-07-19T00:36:04.843Z,24.9
2017-07-19T00:38:05.583Z,24.9
2017-07-19T00:40:05.000Z,24.9
2017-07-19T00:42:04.740Z,24.9
2017-07-19T00:44:05.494Z,24.9
2017-07-19T00:46:05.394Z,24.9
2017-07-19T00:48:04.601Z,24.9
2017-07-19T00:50:05.340Z,24.9
2017-07-19T00:52:05.182Z,24.9
2017-07-19T00:54:04.928Z,24.9
2017-07-19T00:56:04.653Z,24.9
2017-07-19T00:58:05.547Z,24.9
2017-07-19T01:00:05.267Z,24.9
2017-07-19T01:02:05.013Z,24.9
2017-07-19T01:04:04.774Z,24.9
2017-07-19T01:06:08.044Z,24.9
2017-07-19T01:08:04.844Z,24.9
2017-07-19T01:10:05.685Z,24.9
2017-07-19T01:12:10.549Z,24.9
2017-07-19T01:14:07.880Z,24.9
2017-07-19T01:16:05.122Z,24.9
2017-07-19T01:18:05.014Z,24.9
2017-07-19T01:20:04.739Z,24.9
2017-07-19T01:22:05.833Z,24.9
2017-07-19T01:24:05.114Z,24.9
2017-07-19T01:26:04.979Z,24.9
2017-07-19T01:28:04.710Z,24.9
2017-07-19T01:30:05.496Z,24.9
2017-07-19T01:32:05.155Z,24.9
2017-07-19T01:34:04.848Z,24.9
2017-07-19T01:36:08.086Z,24.9
2017-07-19T01:38:09.809Z,24.9
2017-07-19T01:40:07.890Z,24.9
2017-07-19T01:42:08.240Z,24.9
2017-07-19T01:44:07.492Z,24.9
2017-07-19T01:46:05.374Z,24.9
2017-07-19T01:48:05.105Z,24.9
2017-07-19T01:50:04.888Z,24.9
2017-07-19T01:52:04.787Z,24.9
2017-07-19T01:54:13.092Z,24.9
2017-07-19T01:56:05.342Z,24.9
2017-07-19T01:58:05.265Z,24.9
2017-07-19T02:00:05.046Z,24.9
2017-07-19T02:02:09.823Z,24.9
2017-07-19T02:04:10.643Z,24.9
2017-07-19T02:06:05.350Z,24.9
2017-07-19T02:08:07.595Z,24.9
2017-07-19T02:10:05.455Z,24.9
2017-07-19T02:12:07.719Z,24.9
2017-07-19T02:14:08.049Z,24.9
2017-07-19T02:16:04.928Z,24.9
2017-07-19T02:18:07.391Z,24.8
2017-07-19T02:20:04.627Z,24.8
2017-07-19T02:22:05.525Z,24.8
2017-07-19T02:24:05.249Z,24.8
2017-07-19T02:26:07.602Z,24.8
2017-07-19T02:28:07.995Z,24.8
2017-07-19T02:30:05.492Z,24.8
2017-07-19T02:32:05.239Z,24.8
2017-07-19T02:34:05.155Z,24.8
2017-07-19T02:36:04.863Z,24.8
2017-07-19T02:38:05.576Z,24.8
2017-07-19T02:40:05.477Z,24.8
2017-07-19T02:42:04.736Z,24.7
2017-07-19T02:44:05.568Z,24.8
2017-07-19T02:46:05.643Z,24.7
2017-07-19T02:48:05.516Z,24.7
2017-07-19T02:50:05.217Z,24.7
2017-07-19T02:52:05.042Z,24.7
2017-07-19T02:54:07.353Z,24.7
2017-07-19T02:56:07.575Z,24.7
2017-07-19T02:58:08.189Z,24.7
2017-07-19T03:00:04.943Z,24.7
2017-07-19T03:02:05.321Z,24.7
2017-07-19T03:04:05.125Z,24.7
2017-07-19T03:06:04.830Z,24.7
2017-07-19T03:08:05.628Z,24.7
2017-07-19T03:10:07.920Z,24.7
2017-07-19T03:12:04.651Z,24.7
2017-07-19T03:14:04.866Z,24.7
2017-07-19T03:16:05.864Z,24.7
2017-07-19T03:18:04.959Z,24.7
2017-07-19T03:20:04.691Z,24.7
2017-07-19T03:22:05.089Z,24.6
2017-07-19T03:24:05.352Z,24.6
2017-07-19T03:26:05.088Z,24.6
2017-07-19T03:28:07.525Z,24.6
2017-07-19T03:30:07.715Z,24.6
2017-07-19T03:32:05.410Z,24.6
2017-07-19T03:34:05.297Z,24.7
2017-07-19T03:36:04.984Z,24.7
2017-07-19T03:38:04.661Z,24.6
2017-07-19T03:40:05.564Z,24.6
2017-07-19T03:42:07.862Z,24.6
2017-07-19T03:44:05.533Z,24.6
2017-07-19T03:46:05.240Z,24.6
2017-07-19T03:48:07.504Z,24.6
2017-07-19T03:50:05.403Z,24.6
2017-07-19T03:52:05.188Z,24.6
2017-07-19T03:54:04.910Z,24.6
2017-07-19T03:56:10.197Z,24.6
2017-07-19T03:58:05.408Z,24.6
2017-07-19T04:00:04.664Z,24.6
2017-07-19T04:02:04.933Z,24.6
2017-07-19T04:04:04.812Z,24.6
2017-07-19T04:06:05.864Z,24.6
2017-07-19T04:08:05.597Z,24.5
2017-07-19T04:10:05.608Z,24.6
2017-07-19T04:12:05.430Z,24.5
2017-07-19T04:14:05.177Z,24.6
2017-07-19T04:16:05.039Z,24.5
2017-07-19T04:18:05.544Z,24.6
2017-07-19T04:20:10.346Z,24.5
2017-07-19T04:22:05.219Z,24.6
2017-07-19T04:24:05.471Z,24.5
2017-07-19T04:26:05.205Z,24.6
2017-07-19T04:28:05.077Z,24.5
2017-07-19T04:30:04.825Z,24.6
2017-07-19T04:32:05.081Z,24.5
2017-07-19T04:34:10.524Z,24.6
2017-07-19T04:36:07.783Z,24.6
2017-07-19T04:38:05.621Z,24.6
2017-07-19T04:40:07.797Z,24.6
2017-07-19T04:42:07.595Z,24.6
2017-07-19T04:44:07.349Z,24.6
2017-07-19T04:46:05.424Z,24.6
2017-07-19T04:48:04.914Z,24.7
2017-07-19T04:50:04.687Z,24.7
2017-07-19T04:52:05.393Z,24.7
2017-07-19T04:54:05.320Z,24.7
2017-07-19T04:56:05.047Z,24.7
2017-07-19T04:58:05.104Z,24.7
2017-07-19T05:00:04.846Z,24.7
2017-07-19T05:02:05.551Z,24.7
2017-07-19T05:04:07.844Z,24.8
2017-07-19T05:06:05.811Z,24.8
2017-07-19T05:08:05.508Z,24.8
2017-07-19T05:10:04.876Z,24.8
2017-07-19T05:12:05.109Z,24.8
2017-07-19T05:14:04.836Z,24.8
2017-07-19T05:16:05.813Z,24.9
2017-07-19T05:18:04.804Z,24.9
2017-07-19T05:20:05.586Z,24.9
2017-07-19T05:22:05.263Z,24.9
2017-07-19T05:24:13.079Z,24.9
2017-07-19T05:26:07.327Z,24.9
2017-07-19T05:28:07.760Z,25
2017-07-19T05:30:05.443Z,25
2017-07-19T05:32:04.749Z,25
2017-07-19T05:34:05.521Z,25
2017-07-19T05:36:05.223Z,25.1
2017-07-19T05:38:04.904Z,25.1
2017-07-19T05:40:05.712Z,25.1
2017-07-19T05:42:05.611Z,25.1
2017-07-19T05:44:05.354Z,25.1
2017-07-19T05:46:05.300Z,25.1
2017-07-19T05:48:05.008Z,25.2
2017-07-19T05:50:04.706Z,25.2
2017-07-19T05:52:05.463Z,25.3
2017-07-19T05:54:07.172Z,25.3
2017-07-19T05:56:04.894Z,25.3
2017-07-19T05:58:08.286Z,25.4
2017-07-19T06:00:04.984Z,25.4
2017-07-19T06:02:04.657Z,25.5
2017-07-19T06:04:05.465Z,25.5
2017-07-19T06:06:05.191Z,25.5
2017-07-19T06:08:09.945Z,25.6
2017-07-19T06:10:05.358Z,25.6
2017-07-19T06:12:05.131Z,25.6
2017-07-19T06:14:07.552Z,25.7
2017-07-19T06:16:05.480Z,25.7
2017-07-19T06:18:05.565Z,25.7
2017-07-19T06:20:05.221Z,25.8
2017-07-19T06:22:05.009Z,25.8
2017-07-19T06:24:04.686Z,25.8
2017-07-19T06:26:15.603Z,25.9
2017-07-19T06:28:05.448Z,25.9
2017-07-19T06:30:05.553Z,26
2017-07-19T06:32:05.324Z,26
2017-07-19T06:34:05.759Z,26
2017-07-19T06:36:08.020Z,26.1
2017-07-19T06:38:04.758Z,26.1
2017-07-19T06:40:05.526Z,26.1
2017-07-19T06:42:07.805Z,26.2
2017-07-19T06:44:05.505Z,26.2
2017-07-19T06:46:05.441Z,26.2
2017-07-19T06:48:05.164Z,26.3
2017-07-19T06:50:04.929Z,26.3
2017-07-19T06:52:04.657Z,26.3
2017-07-19T06:54:05.431Z,26.4
2017-07-19T06:56:05.126Z,26.4
2017-07-19T06:58:05.041Z,26.4
2017-07-19T07:00:04.846Z,26.4
2017-07-19T07:02:08.116Z,26.3
2017-07-19T07:04:05.237Z,26.3
2017-07-19T07:06:05.060Z,26.4
2017-07-19T07:08:04.785Z,26.3
2017-07-19T07:10:10.617Z,26.3
2017-07-19T07:12:07.409Z,26.4
2017-07-19T07:14:05.162Z,26.4
2017-07-19T07:16:05.095Z,26.5
2017-07-19T07:18:05.666Z,26.5
2017-07-19T07:20:13.022Z,26.5
2017-07-19T07:22:05.090Z,26.5
2017-07-19T07:24:07.397Z,26.6
2017-07-19T07:26:07.613Z,26.6
2017-07-19T07:28:05.661Z,26.6
2017-07-19T07:30:05.378Z,26.6
2017-07-19T07:32:07.602Z,26.7
2017-07-19T07:34:05.352Z,26.6
2017-07-19T07:36:05.614Z,26.7
2017-07-19T07:38:04.909Z,26.7
2017-07-19T07:40:12.295Z,26.8
2017-07-19T07:42:05.090Z,26.8
2017-07-19T07:44:04.810Z,26.9
2017-07-19T07:46:10.865Z,26.9
2017-07-19T07:48:05.581Z,26.9
2017-07-19T07:50:08.275Z,27
2017-07-19T07:52:05.040Z,27
2017-07-19T07:54:04.794Z,27
2017-07-19T07:56:05.486Z,27
2017-07-19T07:58:10.460Z,27
2017-07-19T08:00:10.246Z,27.1
2017-07-19T08:02:07.540Z,27.2
2017-07-19T08:04:05.351Z,27.2
2017-07-19T08:06:05.201Z,27.2
2017-07-19T08:08:04.900Z,27.2
2017-07-19T08:10:04.649Z,27.3
2017-07-19T08:12:05.425Z,27.3
2017-07-19T08:14:05.159Z,27.3
2017-07-19T08:16:05.059Z,27.4
2017-07-19T08:18:04.941Z,27.3
2017-07-19T08:20:04.637Z,27.4
2017-07-19T08:22:05.583Z,27.4
2017-07-19T08:24:10.336Z,27.4
2017-07-19T08:26:07.579Z,27.5
2017-07-19T08:28:08.113Z,27.5
2017-07-19T08:30:07.603Z,27.6
2017-07-19T08:32:05.488Z,27.5
2017-07-19T08:34:05.238Z,27.6
2017-07-19T08:36:04.938Z,27.6
2017-07-19T08:38:04.826Z,27.6
2017-07-19T08:40:05.678Z,27.7
2017-07-19T08:42:05.040Z,27.7
2017-07-19T08:44:07.512Z,27.7
2017-07-19T08:46:07.630Z,27.7
2017-07-19T08:48:05.334Z,27.7
2017-07-19T08:50:05.003Z,27.7
2017-07-19T08:52:04.800Z,27.8
2017-07-19T08:54:10.653Z,27.8
2017-07-19T08:56:04.996Z,27.9
2017-07-19T08:58:04.875Z,27.9
2017-07-19T09:00:08.114Z,27.9
2017-07-19T09:02:07.352Z,27.8
2017-07-19T09:04:05.285Z,27.8
2017-07-19T09:06:05.008Z,27.9
2017-07-19T09:08:09.833Z,27.8
2017-07-19T09:10:08.244Z,27.8
2017-07-19T09:12:05.057Z,27.8
2017-07-19T09:14:07.389Z,27.8
2017-07-19T09:16:07.880Z,27.8
2017-07-19T09:18:04.742Z,27.8
2017-07-19T09:20:07.258Z,27.9
2017-07-19T09:22:05.138Z,27.9
2017-07-19T09:24:04.865Z,27.8
2017-07-19T09:26:04.629Z,27.9
2017-07-19T09:28:05.545Z,27.9
2017-07-19T09:30:09.842Z,27.9
2017-07-19T09:32:05.602Z,27.9
2017-07-19T09:34:10.036Z,27.9
2017-07-19T09:36:04.736Z,27.9
2017-07-19T09:38:05.445Z,27.9
2017-07-19T09:40:05.388Z,27.9
2017-07-19T09:42:05.324Z,28
2017-07-19T09:44:05.031Z,28
2017-07-19T09:46:04.928Z,28
2017-07-19T09:48:04.685Z,28
2017-07-19T09:50:05.447Z,28
2017-07-19T09:52:09.754Z,28
2017-07-19T09:54:05.100Z,28
2017-07-19T09:56:07.914Z,28
2017-07-19T09:58:05.080Z,28
2017-07-19T10:00:04.889Z,28
2017-07-19T10:02:09.701Z,28
2017-07-19T10:04:05.568Z,28
2017-07-19T10:06:04.695Z,28
2017-07-19T10:08:05.477Z,28
2017-07-19T10:10:05.624Z,28
2017-07-19T10:12:07.373Z,28
2017-07-19T10:14:05.218Z,28
2017-07-19T10:16:05.040Z,28
2017-07-19T10:18:07.449Z,28.1
2017-07-19T10:20:05.202Z,28.1
2017-07-19T10:22:05.190Z,28.1
2017-07-19T10:24:04.925Z,28.1
2017-07-19T10:26:04.645Z,28.1
2017-07-19T10:28:05.725Z,28.1
2017-07-19T10:30:05.521Z,28.1
2017-07-19T10:32:08.022Z,28.1
2017-07-19T10:34:04.947Z,28.1
2017-07-19T10:36:04.701Z,28.1
2017-07-19T10:38:05.504Z,28.2
2017-07-19T10:40:05.289Z,28.1
2017-07-19T10:42:05.082Z,28.1
2017-07-19T10:44:04.852Z,28.1
2017-07-19T10:46:05.063Z,28.1
2017-07-19T10:48:04.755Z,28.1
2017-07-19T10:50:08.060Z,28.1
2017-07-19T10:52:04.951Z,28.1
2017-07-19T10:54:04.748Z,28.1
2017-07-19T10:56:08.039Z,28.1
2017-07-19T10:58:04.926Z,28.1
2017-07-19T11:00:04.693Z,28.1
2017-07-19T11:02:05.442Z,28.1
2017-07-19T11:04:05.288Z,28
2017-07-19T11:06:05.107Z,28.1
2017-07-19T11:08:05.415Z,28
2017-07-19T11:10:05.245Z,28
2017-07-19T11:12:05.549Z,28
2017-07-19T11:14:05.269Z,28
2017-07-19T11:16:05.202Z,28
2017-07-19T11:18:05.152Z,28
2017-07-19T11:20:05.450Z,28
2017-07-19T11:22:05.462Z,28.1
2017-07-19T11:24:05.129Z,28
2017-07-19T11:26:05.338Z,28
2017-07-19T11:28:05.122Z,28
2017-07-19T11:30:04.936Z,28
2017-07-19T11:32:07.232Z,28
2017-07-19T11:34:05.156Z,28
2017-07-19T11:36:04.966Z,28
2017-07-19T11:38:04.800Z,28
2017-07-19T11:40:05.194Z,28
2017-07-19T11:42:05.463Z,28
2017-07-19T11:44:07.923Z,27.9
2017-07-19T11:46:04.683Z,28
2017-07-19T11:48:05.376Z,27.9
2017-07-19T11:50:07.799Z,28
2017-07-19T11:52:08.411Z,27.9
2017-07-19T11:54:04.779Z,27.9
2017-07-19T11:56:04.755Z,27.9
2017-07-19T11:58:05.836Z,27.9
2017-07-19T12:00:05.530Z,27.9
2017-07-19T12:02:05.250Z,27.9
2017-07-19T12:04:05.037Z,27.9
2017-07-19T12:06:04.970Z,27.9
2017-07-19T12:08:04.754Z,27.9
2017-07-19T12:10:08.092Z,27.9
2017-07-19T12:12:04.784Z,27.8
2017-07-19T12:14:04.998Z,27.9
2017-07-19T12:16:09.799Z,27.8
2017-07-19T12:18:04.838Z,27.8
2017-07-19T12:20:05.067Z,27.8
2017-07-19T12:22:04.927Z,27.8
2017-07-19T12:24:04.653Z,27.8
2017-07-19T12:26:07.947Z,27.8
2017-07-19T12:28:04.861Z,27.8
2017-07-19T12:30:08.097Z,27.8
2017-07-19T12:32:05.372Z,27.8
2017-07-19T12:34:05.286Z,27.8
2017-07-19T12:36:10.118Z,27.7
2017-07-19T12:38:07.577Z,27.7
2017-07-19T12:40:05.402Z,27.7
2017-07-19T12:42:05.192Z,27.7
2017-07-19T12:44:04.969Z,27.7
2017-07-19T12:46:05.019Z,27.7
2017-07-19T12:48:04.826Z,27.6
2017-07-19T12:50:05.519Z,27.6
2017-07-19T12:52:05.002Z,27.6
2017-07-19T12:54:05.093Z,27.6
2017-07-19T12:56:04.829Z,27.6
2017-07-19T12:58:12.740Z,27.6
2017-07-19T13:00:05.046Z,27.6
2017-07-19T13:02:04.796Z,27.6
2017-07-19T13:04:05.611Z,27.6
2017-07-19T13:06:05.354Z,27.6
2017-07-19T13:08:07.637Z,27.6
2017-07-19T13:10:05.212Z,27.6
2017-07-19T13:12:04.933Z,27.5
2017-07-19T13:14:04.659Z,27.5
2017-07-19T13:16:05.439Z,27.5
2017-07-19T13:18:05.348Z,27.5
2017-07-19T13:20:05.154Z,27.5
2017-07-19T13:22:05.421Z,27.4
2017-07-19T13:24:04.686Z,27.4
2017-07-19T13:26:05.424Z,27.4
2017-07-19T13:28:05.231Z,27.5
2017-07-19T13:30:04.957Z,27.4
2017-07-19T13:32:04.697Z,27.4
2017-07-19T13:34:05.482Z,27.4
2017-07-19T13:36:05.194Z,27.4
2017-07-19T13:38:07.462Z,27.4
2017-07-19T13:40:05.397Z,27.4
2017-07-19T13:42:05.115Z,27.4
2017-07-19T13:44:08.121Z,27.3
2017-07-19T13:46:04.845Z,27.3
2017-07-19T13:48:05.120Z,27.4
2017-07-19T13:50:05.405Z,27.4
2017-07-19T13:52:05.194Z,27.3
2017-07-19T13:54:04.990Z,27.3
2017-07-19T13:56:04.843Z,27.4
2017-07-19T13:58:04.826Z,27.4
2017-07-19T14:00:05.498Z,27.3
2017-07-19T14:02:05.372Z,27.3
2017-07-19T14:04:05.807Z,27.3
2017-07-19T14:06:05.550Z,27.3
2017-07-19T14:08:05.217Z,27.3
2017-07-19T14:10:05.053Z,27.3
2017-07-19T14:12:04.784Z,27.3
2017-07-19T14:14:05.643Z,27.3
2017-07-19T14:16:05.363Z,27.3
2017-07-19T14:18:05.302Z,27.3
2017-07-19T14:20:05.080Z,27.3
2017-07-19T14:22:04.948Z,27.3
2017-07-19T14:24:04.723Z,27.3
2017-07-19T14:26:05.479Z,27.3
2017-07-19T14:28:05.519Z,27.2
2017-07-19T14:30:05.514Z,27.2
2017-07-19T14:32:05.264Z,27.3
2017-07-19T14:34:05.093Z,27.3
2017-07-19T14:36:05.353Z,27.3
2017-07-19T14:38:08.118Z,27.3
2017-07-19T14:40:04.968Z,27.3
2017-07-19T14:42:04.933Z,27.3
2017-07-19T14:44:07.214Z,27.3
2017-07-19T14:46:05.680Z,27.3
2017-07-19T14:48:05.454Z,27.2
2017-07-19T14:50:07.776Z,26.8
2017-07-19T14:52:04.819Z,26.8
2017-07-19T14:54:05.610Z,26.8
2017-07-19T14:56:05.383Z,26.8
2017-07-19T14:58:05.343Z,26.9
2017-07-19T15:00:05.045Z,26.9
2017-07-19T15:02:04.998Z,26.9
2017-07-19T15:04:14.924Z,26.9
2017-07-19T15:06:04.721Z,26.9
2017-07-19T15:08:05.511Z,26.9
2017-07-19T15:10:05.401Z,26.9
2017-07-19T15:12:05.421Z,26.9
2017-07-19T15:14:05.111Z,26.9
2017-07-19T15:16:05.184Z,26.9
2017-07-19T15:18:05.455Z,26.9
2017-07-19T15:20:05.198Z,26.8
2017-07-19T15:22:10.685Z,26.8
2017-07-19T15:24:05.409Z,26.8
2017-07-19T15:26:07.711Z,26.8
2017-07-19T15:28:05.632Z,26.8
2017-07-19T15:30:05.340Z,26.8
2017-07-19T15:32:07.573Z,26.9
2017-07-19T15:34:05.499Z,26.9
2017-07-19T15:36:05.238Z,26.9
2017-07-19T15:38:05.299Z,26.9
2017-07-19T15:40:05.782Z,27
2017-07-19T15:42:07.529Z,27
2017-07-19T15:44:05.297Z,27
2017-07-19T15:46:04.895Z,27
2017-07-19T15:48:05.196Z,27
2017-07-19T15:50:05.117Z,27.1
2017-07-19T15:52:07.662Z,27.1
2017-07-19T15:54:04.601Z,27
2017-07-19T15:56:10.608Z,27.1
2017-07-19T15:58:07.510Z,27.1
2017-07-19T16:00:05.274Z,27.1
2017-07-19T16:02:07.617Z,27.1
2017-07-19T16:04:04.965Z,27.1
2017-07-19T16:06:04.863Z,27.1
2017-07-19T16:08:05.640Z,27.2
2017-07-19T16:10:05.836Z,27.2
2017-07-19T16:12:07.667Z,27.1
2017-07-19T16:14:04.995Z,27.1
2017-07-19T16:16:04.870Z,27.2
2017-07-19T16:18:04.757Z,27.1
2017-07-19T16:20:10.545Z,27.2
2017-07-19T16:22:05.422Z,27.1
2017-07-19T16:24:05.159Z,27.1
2017-07-19T16:26:04.847Z,27.2
2017-07-19T16:28:04.840Z,27.2
2017-07-19T16:30:07.593Z,27.2
2017-07-19T16:32:05.341Z,27.2
2017-07-19T16:34:04.861Z,27.2
2017-07-19T16:36:05.610Z,27.2
2017-07-19T16:38:05.002Z,27.2
2017-07-19T16:40:07.519Z,27.2
2017-07-19T16:42:05.263Z,27.2
2017-07-19T16:44:04.998Z,27.2
2017-07-19T16:46:04.938Z,27.2
2017-07-19T16:48:04.749Z,27.2
2017-07-19T16:50:05.443Z,27.2
2017-07-19T16:52:05.367Z,27.2
2017-07-19T16:54:05.113Z,27.2
2017-07-19T16:56:04.997Z,27.2
2017-07-19T16:58:07.657Z,27.2
2017-07-19T17:00:05.346Z,27.2
2017-07-19T17:02:05.096Z,27.3
2017-07-19T17:04:04.888Z,27.3
2017-07-19T17:06:04.614Z,27.3
2017-07-19T17:08:05.345Z,27.2
2017-07-19T17:10:07.895Z,27.2
2017-07-19T17:12:05.572Z,27.2
2017-07-19T17:14:05.302Z,27.3
2017-07-19T17:16:05.597Z,27.2
2017-07-19T17:18:05.571Z,27.2
2017-07-19T17:20:04.957Z,27.2
2017-07-19T17:22:07.414Z,27.2
2017-07-19T17:24:05.116Z,27.2
2017-07-19T17:26:08.015Z,27.2
2017-07-19T17:28:05.069Z,27.2
2017-07-19T17:30:05.333Z,27.3
2017-07-19T17:32:07.618Z,27.2
2017-07-19T17:34:07.913Z,27.3
2017-07-19T17:36:05.220Z,27.3
2017-07-19T17:38:05.025Z,27.3
2017-07-19T17:40:04.892Z,27.3
2017-07-19T17:42:08.275Z,27.3
2017-07-19T17:44:10.078Z,27.2
2017-07-19T17:46:05.531Z,27.2
2017-07-19T17:48:05.231Z,27.3
2017-07-19T17:50:05.035Z,27.2
2017-07-19T17:52:07.308Z,27.2
2017-07-19T17:54:05.039Z,27.2
2017-07-19T17:56:04.744Z,27.3
2017-07-19T17:58:05.599Z,27.3
2017-07-19T18:00:05.375Z,27.3
2017-07-19T18:02:05.223Z,27.2
2017-07-19T18:04:05.089Z,27.2
2017-07-19T18:06:07.827Z,27.2
2017-07-19T18:08:08.194Z,27.2
2017-07-19T18:10:05.517Z,27.2
2017-07-19T18:12:05.217Z,27.2
2017-07-19T18:14:07.534Z,27.2
2017-07-19T18:16:07.381Z,27.2
2017-07-19T18:18:08.080Z,27.2
2017-07-19T18:20:07.330Z,27.2
2017-07-19T18:22:05.782Z,27.2
2017-07-19T18:24:05.016Z,27.2
2017-07-19T18:26:09.773Z,27.2
2017-07-19T18:28:05.619Z,27.2
2017-07-19T18:30:05.493Z,27.2
2017-07-19T18:32:04.795Z,27.2
2017-07-19T18:34:05.659Z,27.2
2017-07-19T18:36:07.948Z,27.2
2017-07-19T18:38:04.653Z,27.2
2017-07-19T18:40:10.533Z,27.2
2017-07-19T18:42:05.280Z,27.2
2017-07-19T18:44:04.987Z,27.2
2017-07-19T18:46:05.503Z,27.2
2017-07-19T18:48:05.378Z,27.2
2017-07-19T18:50:10.252Z,27.2
2017-07-19T18:52:05.149Z,27.2
2017-07-19T18:54:04.837Z,27.2
2017-07-19T18:56:05.610Z,27.2
2017-07-19T18:58:07.537Z,27.2
2017-07-19T19:00:05.367Z,27.2
2017-07-19T19:02:05.353Z,27.2
2017-07-19T19:04:05.085Z,27.2
2017-07-19T19:06:05.311Z,27.2
2017-07-19T19:08:07.726Z,27.2
2017-07-19T19:10:05.462Z,27.2
2017-07-19T19:12:07.637Z,27.2
2017-07-19T19:14:05.384Z,27.2
2017-07-19T19:16:05.231Z,27.2
2017-07-19T19:18:05.347Z,27.2
2017-07-19T19:20:05.086Z,27.2
2017-07-19T19:22:04.987Z,27.2
2017-07-19T19:24:05.283Z,27.1
2017-07-19T19:26:08.057Z,27.1
2017-07-19T19:28:07.554Z,27.1
2017-07-19T19:30:07.876Z,27.1
2017-07-19T19:32:10.670Z,27.1
2017-07-19T19:34:05.409Z,27.1
2017-07-19T19:36:05.351Z,27.1
2017-07-19T19:38:05.008Z,27.1
2017-07-19T19:40:04.876Z,27.1
2017-07-19T19:42:05.691Z,27.1
2017-07-19T19:44:06.407Z,27.1
2017-07-19T19:46:05.548Z,27
2017-07-19T19:48:04.773Z,27.1
2017-07-19T19:50:05.648Z,27.1
2017-07-19T19:52:10.400Z,27.1
2017-07-19T19:54:05.138Z,27
2017-07-19T19:56:04.869Z,27
2017-07-19T19:58:05.583Z,27
2017-07-19T20:00:05.321Z,27
2017-07-19T20:02:07.529Z,27
2017-07-19T20:04:05.595Z,27
2017-07-19T20:06:05.474Z,27
2017-07-19T20:08:05.293Z,27
2017-07-19T20:10:05.317Z,27
2017-07-19T20:12:04.997Z,27
2017-07-19T20:14:09.750Z,27
2017-07-19T20:16:05.490Z,27
2017-07-19T20:18:05.446Z,27
2017-07-19T20:20:05.270Z,27
2017-07-19T20:22:05.021Z,27
2017-07-19T20:24:04.744Z,27
2017-07-19T20:26:05.508Z,27
2017-07-19T20:28:05.564Z,27
2017-07-19T20:30:05.270Z,27
2017-07-19T20:32:08.031Z,27
2017-07-19T20:34:08.143Z,27
2017-07-19T20:36:04.964Z,27
2017-07-19T20:38:07.254Z,27
2017-07-19T20:40:05.670Z,26.9
2017-07-19T20:42:05.384Z,26.9
2017-07-19T20:44:05.781Z,27
2017-07-19T20:46:05.572Z,26.9
2017-07-19T20:48:04.891Z,26.9
2017-07-19T20:50:05.614Z,26.9
2017-07-19T20:52:07.731Z,26.9
2017-07-19T20:54:05.477Z,26.9
2017-07-19T20:56:05.294Z,26.9
2017-07-19T20:58:05.228Z,26.9
2017-07-19T21:00:04.981Z,26.9
2017-07-19T21:02:04.786Z,26.9
2017-07-19T21:04:05.685Z,26.9
2017-07-19T21:06:07.987Z,26.9
2017-07-19T21:08:06.238Z,26.9
2017-07-19T21:10:05.627Z,26.9
2017-07-19T21:12:05.462Z,26.9
2017-07-19T21:14:05.203Z,26.9
2017-07-19T21:16:05.468Z,26.9
2017-07-19T21:18:05.355Z,26.9
2017-07-19T21:20:04.799Z,26.9
2017-07-19T21:22:08.867Z,26.9
2017-07-19T21:24:09.868Z,26.9
2017-07-19T21:26:05.884Z,26.9
2017-07-19T21:28:05.744Z,26.9
2017-07-19T21:30:05.610Z,26.9
2017-07-19T21:32:05.372Z,26.9
2017-07-19T21:34:05.468Z,26.9
2017-07-19T21:36:05.187Z,27
2017-07-19T21:38:04.966Z,26.9
2017-07-19T21:40:04.800Z,27
2017-07-19T21:42:08.197Z,27
2017-07-19T21:44:05.849Z,26.9
2017-07-19T21:46:07.999Z,27
2017-07-19T21:48:05.697Z,27
2017-07-19T21:50:10.464Z,27
2017-07-19T21:52:05.347Z,27
2017-07-19T21:54:05.314Z,27
2017-07-19T21:56:05.091Z,27
2017-07-19T21:58:05.072Z,27
2017-07-19T22:00:04.894Z,27
2017-07-19T22:02:04.669Z,27
2017-07-19T22:04:08.234Z,27
2017-07-19T22:06:07.467Z,27
2017-07-19T22:08:05.215Z,27
2017-07-19T22:10:05.228Z,27
2017-07-19T22:12:07.473Z,27
2017-07-19T22:14:04.781Z,27
2017-07-19T22:16:05.758Z,27
2017-07-19T22:18:04.677Z,27
2017-07-19T22:20:05.395Z,26.9
2017-07-19T22:22:05.304Z,26.9
2017-07-19T22:24:07.549Z,26.9
2017-07-19T22:26:05.218Z,26.9
2017-07-19T22:28:05.092Z,26.9
2017-07-19T22:30:04.985Z,26.9
2017-07-19T22:32:07.728Z,26.9
2017-07-19T22:34:05.636Z,26.9
2017-07-19T22:36:05.302Z,26.9
2017-07-19T22:38:05.137Z,26.9
2017-07-19T22:40:07.537Z,26.9
2017-07-19T22:42:07.850Z,26.9
2017-07-19T22:44:07.628Z,26.9
2017-07-19T22:46:05.389Z,26.9
2017-07-19T22:48:12.726Z,26.9
2017-07-19T22:50:05.513Z,26.9
2017-07-19T22:52:05.396Z,26.9
2017-07-19T22:54:05.126Z,26.9
2017-07-19T22:56:04.798Z,26.9
2017-07-19T22:58:05.661Z,26.9
2017-07-19T23:00:05.356Z,26.9
2017-07-19T23:02:04.654Z,26.9
2017-07-19T23:04:05.501Z,26.9
2017-07-19T23:06:05.255Z,26.9
2017-07-19T23:08:04.982Z,26.9
2017-07-19T23:10:05.084Z,26.9
2017-07-19T23:12:07.846Z,26.9
2017-07-19T23:14:05.597Z,26.9
2017-07-19T23:16:05.431Z,26.9
2017-07-19T23:18:05.054Z,26.9
2017-07-19T23:20:04.763Z,26.9
2017-07-19T23:22:05.497Z,26.9
2017-07-19T23:24:05.257Z,26.9
2017-07-19T23:26:04.982Z,26.9
2017-07-19T23:28:05.305Z,26.8
2017-07-19T23:30:05.024Z,26.8
2017-07-19T23:32:04.795Z,26.8
2017-07-19T23:34:10.708Z,26.8
2017-07-19T23:36:05.369Z,26.8
2017-07-19T23:38:05.588Z,26.8
2017-07-19T23:40:05.482Z,26.8
2017-07-19T23:42:05.176Z,26.8
2017-07-19T23:44:07.483Z,26.8
2017-07-19T23:46:07.898Z,26.8
2017-07-19T23:48:05.568Z,26.8
2017-07-19T23:50:05.036Z,26.8
2017-07-19T23:52:04.769Z,26.8
2017-07-19T23:54:05.429Z,26.8
2017-07-19T23:56:07.704Z,26.8
2017-07-19T23:58:05.530Z,26.8
